Time;durP1;ratioP1;P1;durP2;ratioP2;P2;SDS_P1;SDS_P2;PMS_P1;PMS_P2;Temp;Humidity;BMP_temperature;BMP_pressure;BME280_temperature;BME280_humidity;BME280_pressure;Samples;Min_cycle;Max_cycle;Signal;HPM_P1;HPM_P2
2021/12/20 00:00:01;;;;;;;2.47;0.52;;;18.80;56.10;;;;;;5038292;28;20041;-93
2021/12/20 00:02:26;;;;;;;2.25;0.40;;;19.80;56.70;;;;;;5038480;28;20159;-94
2021/12/20 00:04:53;;;;;;;1.90;0.38;;;18.80;56.10;;;;;;5024642;28;20060;-94
2021/12/20 00:07:19;;;;;;;2.05;0.30;;;18.80;56.10;;;;;;5019215;28;20062;-94
2021/12/20 00:09:44;;;;;;;1.35;0.20;;;18.70;56.70;;;;;;5021305;28;20058;-94
2021/12/20 00:12:10;;;;;;;1.75;0.47;;;18.70;56.00;;;;;;5018830;28;20124;-94
2021/12/20 00:14:36;;;;;;;2.35;0.40;;;18.70;56.00;;;;;;5025400;28;20099;-94
2021/12/20 00:17:01;;;;;;;1.83;0.30;;;18.80;56.00;;;;;;5035221;28;20046;-94
2021/12/20 00:19:27;;;;;;;2.05;0.40;;;18.70;56.00;;;;;;5035253;28;20569;-95
2021/12/20 00:21:52;;;;;;;1.65;0.45;;;18.70;56.00;;;;;;5029036;28;20504;-94
2021/12/20 00:24:19;;;;;;;2.30;0.40;;;18.70;56.00;;;;;;5034982;28;20116;-94
2021/12/20 00:26:44;;;;;;;3.08;0.47;;;18.70;56.00;;;;;;5014289;28;20053;-95
2021/12/20 00:29:10;;;;;;;1.73;0.43;;;18.70;56.00;;;;;;4998862;28;20121;-94
2021/12/20 00:31:35;;;;;;;1.58;0.30;;;18.70;56.00;;;;;;4998891;28;20050;-94
2021/12/20 00:34:01;;;;;;;2.65;0.40;;;18.70;56.00;;;;;;4998153;28;20072;-94
2021/12/20 00:36:29;;;;;;;2.47;0.40;;;18.70;56.00;;;;;;5007255;28;20049;-94
2021/12/20 00:41:39;;;;;;;4.68;0.60;;;18.70;56.00;;;;;;5018080;28;20041;-94
2021/12/20 00:44:05;;;;;;;2.70;0.50;;;18.70;55.90;;;;;;5017743;28;20448;-93
2021/12/20 00:46:30;;;;;;;1.15;0.30;;;18.70;55.90;;;;;;5018049;28;20043;-94
2021/12/20 00:48:56;;;;;;;3.22;0.40;;;18.70;56.00;;;;;;5018164;28;20057;-93
2021/12/20 00:51:21;;;;;;;3.25;0.68;;;18.70;56.00;;;;;;5017639;28;20095;-94
2021/12/20 00:53:47;;;;;;;2.05;0.40;;;18.60;55.90;;;;;;5017922;28;20536;-94
2021/12/20 00:56:12;;;;;;;1.08;0.30;;;18.60;55.90;;;;;;5001310;28;20095;-94
2021/12/20 00:58:38;;;;;;;2.13;0.47;;;18.60;55.90;;;;;;5017632;28;20134;-94
2021/12/20 01:01:03;;;;;;;3.25;0.45;;;18.60;55.90;;;;;;5017708;28;20079;-94
2021/12/20 01:03:30;;;;;;;1.88;0.43;;;18.70;55.90;;;;;;5018106;28;20136;-94
2021/12/20 01:05:59;;;;;;;3.60;0.55;;;18.60;55.90;;;;;;5016376;28;20049;-94
2021/12/20 01:08:27;;;;;;;3.15;0.60;;;18.60;55.90;;;;;;5015447;28;20053;-94
2021/12/20 01:10:54;;;;;;;2.65;0.50;;;18.70;55.90;;;;;;5004658;28;20528;-94
2021/12/20 01:13:22;;;;;;;3.03;0.50;;;18.60;55.90;;;;;;5028741;28;20056;-95
2021/12/20 01:15:51;;;;;;;1.00;0.30;;;18.60;55.90;;;;;;5036959;28;20047;-94
2021/12/20 01:18:17;;;;;;;2.42;0.52;;;18.60;55.90;;;;;;5037973;28;20053;-94
2021/12/20 01:20:43;;;;;;;2.78;0.68;;;18.60;55.90;;;;;;5038135;28;20103;-94
2021/12/20 01:23:09;;;;;;;1.02;0.32;;;18.60;55.90;;;;;;5037508;28;20049;-94
2021/12/20 01:25:34;;;;;;;2.72;0.55;;;18.60;55.90;;;;;;5037141;28;20095;-95
2021/12/20 01:28:00;;;;;;;1.77;0.40;;;18.60;55.90;;;;;;5037198;28;20144;-93
2021/12/20 01:30:26;;;;;;;1.45;0.32;;;18.60;55.90;;;;;;5037334;28;20044;-94
2021/12/20 01:32:51;;;;;;;2.90;0.60;;;18.60;55.90;;;;;;5037357;28;20037;-93
2021/12/20 01:35:18;;;;;;;2.90;0.60;;;18.60;55.80;;;;;;5037305;28;20053;-94
2021/12/20 01:37:43;;;;;;;2.70;0.38;;;19.10;56.10;;;;;;5036443;28;20129;-93
2021/12/20 01:40:10;;;;;;;2.38;0.55;;;18.60;55.80;;;;;;5036374;28;20091;-94
2021/12/20 01:42:36;;;;;;;3.33;0.40;;;18.60;55.90;;;;;;5034860;28;20092;-94
2021/12/20 01:45:10;;;;;;;2.45;0.70;;;18.50;55.80;;;;;;5035996;28;20045;-94
2021/12/20 01:47:38;;;;;;;1.98;0.47;;;18.60;55.80;;;;;;5036090;28;20049;-94
2021/12/20 01:50:16;;;;;;;3.40;0.90;;;18.60;55.90;;;;;;5020507;28;20091;-94
2021/12/20 01:52:43;;;;;;;4.03;0.60;;;18.60;55.80;;;;;;5037308;28;20604;-94
2021/12/20 01:55:10;;;;;;;1.65;0.40;;;18.50;55.80;;;;;;5037409;28;20090;-94
2021/12/20 01:57:36;;;;;;;2.58;0.60;;;18.50;55.80;;;;;;5036137;28;20106;-94
2021/12/20 02:00:04;;;;;;;2.78;0.70;;;18.50;55.80;;;;;;5037644;28;20040;-95
2021/12/20 02:02:30;;;;;;;3.65;0.68;;;18.50;55.80;;;;;;5037708;28;20175;-94
2021/12/20 02:05:04;;;;;;;1.58;0.30;;;18.50;55.80;;;;;;5036792;28;20165;-93
2021/12/20 02:07:48;;;;;;;1.27;0.30;;;18.50;55.80;;;;;;5036667;28;20059;-94
2021/12/20 02:10:14;;;;;;;3.03;0.77;;;18.50;55.80;;;;;;5036414;28;20382;-94
2021/12/20 02:12:39;;;;;;;1.90;0.35;;;18.50;55.80;;;;;;5019510;28;20148;-94
2021/12/20 02:15:05;;;;;;;2.80;0.52;;;18.50;55.80;;;;;;5036186;28;20049;-94
2021/12/20 02:17:31;;;;;;;1.63;0.45;;;18.50;55.70;;;;;;5033552;28;20059;-93
2021/12/20 02:20:00;;;;;;;2.25;0.40;;;18.50;55.70;;;;;;5035196;28;20048;-93
2021/12/20 02:22:26;;;;;;;3.55;0.60;;;18.50;55.80;;;;;;5036068;28;20057;-94
2021/12/20 02:24:52;;;;;;;2.22;0.43;;;18.50;55.80;;;;;;5025980;28;20055;-93
2021/12/20 02:27:17;;;;;;;2.17;0.50;;;19.90;56.50;;;;;;5036330;28;20124;-93
2021/12/20 02:30:01;;;;;;;2.63;0.40;;;18.50;55.70;;;;;;5036417;28;20041;-93
2021/12/20 02:37:56;;;;;;;2.78;0.50;;;18.40;55.70;;;;;;5035543;28;20045;-93
2021/12/20 02:40:22;;;;;;;2.28;0.63;;;18.40;55.70;;;;;;5019598;28;20132;-94
2021/12/20 02:42:49;;;;;;;1.77;0.50;;;18.40;55.60;;;;;;5036988;28;20072;-96
2021/12/20 02:45:16;;;;;;;2.65;0.60;;;18.40;55.70;;;;;;5035866;28;20460;-96
2021/12/20 02:47:43;;;;;;;3.38;0.52;;;18.40;55.70;;;;;;5009552;28;20152;-96
2021/12/20 02:50:09;;;;;;;2.45;0.70;;;18.40;55.70;;;;;;5034841;28;20053;-95
2021/12/20 02:52:35;;;;;;;2.33;0.50;;;18.40;55.70;;;;;;5036165;28;20051;-96
2021/12/20 02:55:00;;;;;;;2.72;0.40;;;18.40;55.70;;;;;;5036008;28;20072;-96
2021/12/20 02:57:26;;;;;;;2.42;0.50;;;18.40;55.70;;;;;;5035626;28;20044;-96
2021/12/20 02:59:51;;;;;;;1.90;0.50;;;18.40;55.60;;;;;;5035448;28;20040;-96
2021/12/20 03:02:18;;;;;;;2.20;0.50;;;18.40;55.60;;;;;;5035811;28;20110;-94
2021/12/20 03:04:44;;;;;;;4.63;0.68;;;18.40;55.70;;;;;;5035823;28;20053;-94
2021/12/20 03:07:14;;;;;;;2.10;0.50;;;18.40;55.70;;;;;;5032455;28;20798;-93
2021/12/20 03:09:42;;;;;;;2.42;0.50;;;18.40;55.60;;;;;;5032296;28;20049;-94
2021/12/20 03:12:09;;;;;;;1.15;0.30;;;18.40;55.70;;;;;;5035483;28;20040;-94
2021/12/20 03:14:41;;;;;;;2.10;0.45;;;18.40;55.60;;;;;;5032283;28;20073;-95
2021/12/20 03:17:07;;;;;;;2.50;0.70;;;18.40;55.60;;;;;;5035851;28;20112;-94
2021/12/20 03:19:32;;;;;;;2.70;0.40;;;18.30;55.50;;;;;;5035547;28;20566;-93
2021/12/20 03:21:58;;;;;;;2.92;0.80;;;18.30;55.50;;;;;;5034907;28;20107;-94
2021/12/20 03:24:24;;;;;;;1.05;0.40;;;18.30;55.60;;;;;;5035776;28;20037;-95
2021/12/20 03:26:49;;;;;;;2.70;0.50;;;18.30;55.60;;;;;;5033654;28;20049;-95
2021/12/20 03:29:15;;;;;;;3.47;0.70;;;18.30;55.50;;;;;;5032580;28;20041;-94
2021/12/20 03:31:40;;;;;;;2.63;0.55;;;19.10;56.00;;;;;;5034479;28;20106;-94
2021/12/20 03:34:06;;;;;;;3.88;0.63;;;18.30;55.50;;;;;;5035007;28;20102;-93
2021/12/20 03:36:32;;;;;;;1.63;0.30;;;18.30;55.50;;;;;;5034585;28;20497;-95
2021/12/20 03:38:58;;;;;;;2.45;0.52;;;18.30;55.50;;;;;;5034947;28;20075;-93
2021/12/20 03:41:23;;;;;;;2.28;0.40;;;18.30;55.60;;;;;;5034507;28;20037;-93
2021/12/20 03:43:49;;;;;;;2.63;0.50;;;18.30;55.50;;;;;;5034737;28;20048;-93
2021/12/20 03:46:15;;;;;;;1.95;0.47;;;18.30;55.50;;;;;;5035153;28;20055;-93
2021/12/20 03:48:40;;;;;;;1.58;0.40;;;18.30;55.50;;;;;;5034328;28;20421;-92
2021/12/20 03:51:06;;;;;;;2.65;0.52;;;18.30;55.50;;;;;;5035241;28;20045;-93
2021/12/20 03:53:33;;;;;;;1.77;0.50;;;18.30;55.50;;;;;;5035441;28;20052;-93
2021/12/20 03:55:58;;;;;;;4.10;0.60;;;18.30;55.50;;;;;;5035021;28;20061;-93
2021/12/20 03:58:26;;;;;;;3.67;0.52;;;18.20;55.50;;;;;;5035024;28;20044;-93
2021/12/20 04:00:53;;;;;;;3.22;0.40;;;18.30;55.50;;;;;;5036049;28;20829;-93
2021/12/20 04:03:18;;;;;;;2.40;0.52;;;18.30;55.50;;;;;;5038207;28;20082;-93
2021/12/20 04:05:44;;;;;;;2.88;0.60;;;18.30;55.50;;;;;;5038280;28;20139;-93
2021/12/20 04:08:09;;;;;;;1.80;0.40;;;18.30;55.50;;;;;;5038612;28;20037;-92
2021/12/20 04:10:35;;;;;;;2.00;0.50;;;18.20;55.40;;;;;;5038439;28;20055;-93
2021/12/20 04:13:00;;;;;;;2.20;0.52;;;18.20;55.50;;;;;;5038559;28;20506;-93
2021/12/20 04:15:26;;;;;;;3.85;0.50;;;18.20;55.50;;;;;;5038361;28;20049;-93
2021/12/20 04:17:51;;;;;;;2.22;0.60;;;18.30;55.50;;;;;;5038632;28;20056;-93
2021/12/20 04:20:17;;;;;;;2.53;0.50;;;18.20;55.40;;;;;;5038468;28;20045;-93
2021/12/20 04:22:43;;;;;;;2.92;0.40;;;18.20;55.50;;;;;;5038129;28;20450;-92
2021/12/20 04:25:08;;;;;;;3.15;0.50;;;18.20;55.40;;;;;;5037346;28;20041;-91
2021/12/20 04:27:34;;;;;;;2.08;0.50;;;18.20;55.50;;;;;;5038011;28;20037;-93
2021/12/20 04:30:08;;;;;;;3.50;0.73;;;18.20;55.50;;;;;;5038431;28;20045;-93
2021/12/20 04:32:33;;;;;;;1.95;0.52;;;18.20;55.40;;;;;;5038178;28;20408;-93
2021/12/20 04:34:59;;;;;;;2.03;0.40;;;18.20;55.40;;;;;;5037809;28;20060;-93
2021/12/20 04:37:24;;;;;;;2.13;0.55;;;18.20;55.40;;;;;;5036813;28;20451;-92
2021/12/20 04:39:50;;;;;;;3.05;0.60;;;18.20;55.40;;;;;;5035362;28;20116;-93
2021/12/20 04:42:15;;;;;;;2.90;0.50;;;18.20;55.40;;;;;;5037168;28;20052;-93
2021/12/20 04:44:41;;;;;;;3.47;0.70;;;18.20;55.50;;;;;;5038338;28;20048;-93
2021/12/20 04:47:06;;;;;;;2.25;0.40;;;18.20;55.40;;;;;;5038099;28;20047;-93
2021/12/20 04:49:32;;;;;;;2.40;0.57;;;18.10;55.40;;;;;;5038281;28;20059;-93
2021/12/20 04:51:57;;;;;;;3.20;0.63;;;18.10;55.40;;;;;;5037843;28;20044;-92
2021/12/20 04:54:23;;;;;;;2.78;0.47;;;18.10;55.40;;;;;;5037932;28;20127;-93
2021/12/20 04:56:49;;;;;;;2.75;0.40;;;18.10;55.40;;;;;;5037919;28;20056;-93
2021/12/20 04:59:14;;;;;;;2.47;0.55;;;18.10;55.40;;;;;;5027190;28;20140;-93
2021/12/20 05:01:40;;;;;;;2.08;0.68;;;18.10;55.40;;;;;;5038364;28;20044;-93
2021/12/20 05:04:05;;;;;;;2.65;0.45;;;18.10;55.40;;;;;;5055204;28;20641;-93
2021/12/20 05:06:33;;;;;;;2.15;0.50;;;18.10;55.40;;;;;;5037971;28;20049;-93
2021/12/20 05:08:58;;;;;;;2.55;0.52;;;18.10;55.40;;;;;;5038570;28;20049;-93
2021/12/20 05:11:25;;;;;;;4.05;0.60;;;18.10;55.40;;;;;;5054990;28;20045;-93
2021/12/20 05:13:51;;;;;;;2.08;0.40;;;18.10;55.50;;;;;;5021313;28;20580;-94
2021/12/20 05:16:16;;;;;;;2.78;0.52;;;18.10;55.40;;;;;;5002820;28;20073;-92
2021/12/20 05:18:42;;;;;;;2.35;0.50;;;18.10;55.50;;;;;;5019994;28;20060;-93
2021/12/20 05:21:07;;;;;;;1.92;0.40;;;18.10;55.50;;;;;;5035721;28;20068;-93
2021/12/20 05:23:33;;;;;;;3.20;0.43;;;18.10;55.50;;;;;;5020147;28;20083;-92
2021/12/20 05:25:59;;;;;;;2.42;0.60;;;18.10;55.60;;;;;;5020512;28;20045;-92
2021/12/20 05:28:24;;;;;;;3.53;0.40;;;18.10;55.60;;;;;;5033896;28;20077;-94
2021/12/20 05:30:52;;;;;;;1.73;0.40;;;18.10;55.70;;;;;;5016955;28;20084;-92
2021/12/20 05:33:18;;;;;;;2.97;0.50;;;18.10;55.70;;;;;;5034902;28;20137;-93
2021/12/20 05:35:43;;;;;;;1.58;0.35;;;18.10;55.70;;;;;;5034490;28;20489;-93
2021/12/20 05:38:09;;;;;;;1.33;0.38;;;18.10;56.40;;;;;;5043329;28;20053;-93
2021/12/20 05:40:35;;;;;;;3.63;0.55;;;18.10;55.80;;;;;;5033588;28;20501;-93
2021/12/20 05:43:01;;;;;;;2.88;0.50;;;19.60;56.60;;;;;;5031045;28;20441;-93
2021/12/20 05:45:26;;;;;;;1.85;0.55;;;18.10;55.90;;;;;;5035890;28;20048;-92
2021/12/20 05:47:52;;;;;;;2.75;0.52;;;18.20;55.90;;;;;;5036940;28;20045;-93
2021/12/20 05:50:18;;;;;;;3.38;0.80;;;18.20;55.90;;;;;;5034750;28;20116;-93
2021/12/20 05:52:44;;;;;;;3.30;0.70;;;18.20;55.90;;;;;;5037367;28;20071;-93
2021/12/20 05:55:09;;;;;;;1.15;0.40;;;18.20;55.90;;;;;;5021114;28;20048;-93
2021/12/20 05:57:35;;;;;;;2.70;0.43;;;18.20;55.90;;;;;;5037546;28;20803;-92
2021/12/20 06:00:01;;;;;;;2.35;0.50;;;18.20;55.90;;;;;;5038012;28;20041;-92
2021/12/20 06:02:27;;;;;;;2.28;0.43;;;18.50;56.10;;;;;;5038260;28;20059;-92
2021/12/20 06:04:52;;;;;;;1.35;0.30;;;18.20;55.90;;;;;;5038261;28;20045;-93
2021/12/20 06:07:19;;;;;;;3.20;0.50;;;18.30;55.90;;;;;;5038828;28;20040;-93
2021/12/20 06:09:44;;;;;;;2.17;0.40;;;18.20;55.90;;;;;;5038632;28;20064;-90
2021/12/20 06:12:10;;;;;;;1.90;0.60;;;18.30;55.90;;;;;;5038216;28;20732;-93
2021/12/20 06:14:36;;;;;;;3.03;0.52;;;18.80;56.10;;;;;;5054841;28;20106;-92
2021/12/20 06:17:01;;;;;;;1.40;0.32;;;18.30;55.90;;;;;;5038285;28;20056;-93
2021/12/20 06:19:27;;;;;;;1.75;0.38;;;18.30;55.80;;;;;;5022224;28;20132;-92
2021/12/20 06:21:53;;;;;;;2.58;0.68;;;18.30;55.80;;;;;;5010151;28;20053;-93
2021/12/20 06:24:18;;;;;;;1.80;0.50;;;18.30;55.80;;;;;;5036958;28;20056;-93
2021/12/20 06:26:44;;;;;;;1.25;0.30;;;18.30;55.80;;;;;;5037653;28;20037;-92
2021/12/20 06:29:09;;;;;;;3.15;0.60;;;18.30;55.80;;;;;;5036385;28;20037;-92
2021/12/20 06:31:35;;;;;;;2.53;0.65;;;18.30;55.80;;;;;;5028664;28;20079;-93
2021/12/20 06:34:00;;;;;;;2.60;0.60;;;18.30;55.80;;;;;;5028810;28;20048;-93
2021/12/20 06:36:29;;;;;;;2.22;0.57;;;18.30;55.80;;;;;;5016147;28;20054;-94
2021/12/20 06:38:56;;;;;;;1.95;0.40;;;18.30;55.70;;;;;;5016041;28;20049;-92
2021/12/20 06:41:21;;;;;;;2.08;0.50;;;18.40;55.80;;;;;;5016372;28;20057;-93
2021/12/20 06:43:47;;;;;;;2.67;0.40;;;18.40;55.80;;;;;;5016623;28;20045;-94
2021/12/20 06:46:14;;;;;;;1.45;0.40;;;18.40;55.80;;;;;;5015689;28;20073;-93
2021/12/20 06:48:39;;;;;;;1.90;0.43;;;18.40;55.80;;;;;;5018203;28;20072;-94
2021/12/20 06:51:05;;;;;;;2.30;0.65;;;18.40;55.80;;;;;;5030256;28;20377;-93
2021/12/20 06:53:30;;;;;;;1.90;0.40;;;18.40;55.80;;;;;;5031475;28;20092;-94
2021/12/20 06:55:56;;;;;;;1.42;0.40;;;18.40;55.80;;;;;;5017314;28;20057;-93
2021/12/20 06:58:23;;;;;;;1.33;0.40;;;18.40;55.80;;;;;;5025643;28;20099;-93
2021/12/20 07:00:50;;;;;;;1.65;0.40;;;18.50;55.80;;;;;;5031768;28;20056;-93
2021/12/20 07:03:16;;;;;;;1.88;0.40;;;18.40;55.80;;;;;;5035023;28;20072;-93
2021/12/20 07:05:41;;;;;;;1.10;0.28;;;18.40;55.70;;;;;;5023676;28;20462;-94
2021/12/20 07:08:07;;;;;;;2.75;0.63;;;18.40;55.70;;;;;;5016973;28;20056;-95
2021/12/20 07:10:32;;;;;;;1.80;0.30;;;18.40;55.70;;;;;;5015079;28;20136;-91
2021/12/20 07:12:58;;;;;;;1.45;0.30;;;18.50;55.70;;;;;;5013221;28;20132;-91
2021/12/20 07:15:25;;;;;;;3.13;0.70;;;18.50;55.70;;;;;;5012365;28;20423;-87
2021/12/20 07:17:50;;;;;;;1.70;0.40;;;18.50;55.70;;;;;;5011589;28;20049;-88
2021/12/20 07:20:16;;;;;;;1.55;0.43;;;18.50;55.70;;;;;;5010764;28;20143;-86
2021/12/20 07:22:41;;;;;;;2.20;0.60;;;18.50;55.70;;;;;;5013794;28;20044;-87
2021/12/20 07:25:08;;;;;;;1.42;0.30;;;19.00;55.90;;;;;;5017229;28;20042;-87
2021/12/20 07:27:33;;;;;;;2.08;0.40;;;18.50;55.60;;;;;;5013801;28;20481;-87
2021/12/20 07:29:59;;;;;;;1.88;0.57;;;18.50;55.60;;;;;;4980840;28;20056;-87
2021/12/20 07:32:24;;;;;;;1.52;0.40;;;19.60;56.20;;;;;;5002390;28;20184;-87
2021/12/20 07:34:50;;;;;;;2.90;0.55;;;19.10;55.90;;;;;;5020247;28;20064;-87
2021/12/20 07:37:17;;;;;;;2.22;0.40;;;18.50;55.60;;;;;;4997013;28;20643;-87
2021/12/20 07:39:42;;;;;;;2.70;0.43;;;18.50;55.50;;;;;;5034719;28;20095;-87
2021/12/20 07:42:09;;;;;;;1.83;0.38;;;18.50;55.50;;;;;;5033399;28;20072;-87
2021/12/20 07:44:34;;;;;;;3.08;0.63;;;18.50;55.50;;;;;;5036219;28;20045;-87
2021/12/20 07:47:00;;;;;;;2.78;0.40;;;18.50;55.50;;;;;;5035289;28;20037;-91
2021/12/20 07:49:25;;;;;;;1.92;0.50;;;18.50;55.50;;;;;;5037324;28;20041;-93
2021/12/20 07:51:53;;;;;;;2.90;0.43;;;18.60;55.60;;;;;;5034277;28;20148;-91
2021/12/20 07:54:19;;;;;;;4.00;0.70;;;18.50;55.50;;;;;;5043796;28;20050;-96
2021/12/20 07:56:44;;;;;;;4.65;0.70;;;18.50;55.40;;;;;;5032759;28;20416;-90
2021/12/20 07:59:10;;;;;;;6.60;1.15;;;18.50;55.30;;;;;;5002114;28;20064;-92
2021/12/20 08:01:36;;;;;;;3.05;0.70;;;18.50;55.20;;;;;;5020575;28;20428;-92
2021/12/20 08:04:02;;;;;;;3.63;0.95;;;18.50;55.10;;;;;;5016959;28;20191;-90
2021/12/20 08:06:28;;;;;;;3.55;0.75;;;18.50;55.20;;;;;;5017512;28;20060;-91
2021/12/20 08:08:53;;;;;;;4.03;0.93;;;18.50;55.10;;;;;;5015218;28;20429;-92
2021/12/20 08:11:19;;;;;;;3.78;0.95;;;18.50;55.10;;;;;;5015388;28;20152;-91
2021/12/20 08:13:44;;;;;;;4.18;0.80;;;18.40;54.90;;;;;;5019464;28;20056;-95
2021/12/20 08:16:23;;;;;;;4.15;0.60;;;18.50;55.00;;;;;;5017737;28;20489;-89
2021/12/20 08:18:49;;;;;;;5.47;1.33;;;18.40;54.90;;;;;;5018410;28;20045;-94
2021/12/20 08:21:15;;;;;;;2.22;0.60;;;18.40;54.90;;;;;;5017744;28;20060;-91
2021/12/20 08:23:40;;;;;;;5.32;0.80;;;18.40;54.90;;;;;;5018004;28;20585;-93
2021/12/20 08:26:06;;;;;;;3.42;0.60;;;18.40;54.90;;;;;;5017239;28;20099;-92
2021/12/20 08:28:32;;;;;;;3.53;0.80;;;18.40;54.90;;;;;;5018171;28;20046;-92
2021/12/20 08:30:57;;;;;;;2.80;0.73;;;18.40;54.90;;;;;;5017898;28;20041;-93
2021/12/20 08:33:23;;;;;;;3.95;0.90;;;18.40;54.80;;;;;;5020072;28;20044;-94
2021/12/20 08:35:49;;;;;;;4.30;0.68;;;18.40;54.90;;;;;;5037980;28;20049;-93
2021/12/20 08:38:17;;;;;;;5.47;0.65;;;18.40;54.90;;;;;;5037338;28;20056;-91
2021/12/20 08:40:45;;;;;;;4.05;0.70;;;18.40;54.90;;;;;;5035757;28;20103;-93
2021/12/20 08:43:10;;;;;;;4.55;0.95;;;18.90;55.20;;;;;;5035760;28;20049;-96
2021/12/20 08:45:36;;;;;;;2.17;0.60;;;19.60;55.60;;;;;;5043536;28;20049;-96
2021/12/20 08:48:01;;;;;;;3.78;1.10;;;18.40;55.10;;;;;;5040978;28;20045;-96
2021/12/20 08:50:27;;;;;;;3.85;0.73;;;18.40;54.90;;;;;;5038714;28;20164;-96
2021/12/20 08:52:53;;;;;;;2.65;0.57;;;18.40;54.90;;;;;;5043491;28;20044;-96
2021/12/20 08:55:19;;;;;;;5.45;1.00;;;18.40;54.90;;;;;;5035143;28;20057;-96
2021/12/20 08:57:44;;;;;;;3.65;0.68;;;18.40;54.90;;;;;;5037058;28;20041;-96
2021/12/20 09:00:14;;;;;;;3.08;0.68;;;18.40;54.90;;;;;;5037522;28;20570;-96
2021/12/20 09:02:39;;;;;;;3.60;0.65;;;18.40;54.90;;;;;;5038391;28;20056;-96
2021/12/20 09:05:11;;;;;;;3.80;0.70;;;18.40;54.90;;;;;;5043835;28;20049;-96
2021/12/20 09:07:39;;;;;;;2.55;0.70;;;18.40;54.90;;;;;;5040225;28;20041;-96
2021/12/20 09:10:06;;;;;;;2.67;0.65;;;19.30;55.70;;;;;;5038346;28;20488;-96
2021/12/20 09:12:41;;;;;;;3.10;0.80;;;18.30;55.10;;;;;;5038827;28;20083;-96
2021/12/20 09:15:24;;;;;;;3.10;0.70;;;19.70;56.00;;;;;;5035488;28;20049;-95
2021/12/20 09:17:53;;;;;;;3.05;0.60;;;18.00;55.20;;;;;;5033097;28;20050;-95
2021/12/20 09:20:28;;;;;;;1.95;0.60;;;18.20;54.90;;;;;;5035832;28;20086;-95
2021/12/20 09:23:02;;;;;;;2.65;0.60;;;18.90;55.50;;;;;;5034557;28;20088;-95
2021/12/20 09:25:53;;;;;;;2.30;0.77;;;18.50;55.10;;;;;;5028485;28;20128;-96
2021/12/20 09:28:19;;;;;;;1.50;0.50;;;19.10;55.80;;;;;;5047501;28;20386;-93
2021/12/20 09:30:45;;;;;;;4.20;0.88;;;18.40;55.30;;;;;;5050520;28;20185;-92
2021/12/20 09:33:11;;;;;;;3.05;0.50;;;18.40;54.90;;;;;;5033418;28;20441;-85
2021/12/20 09:35:36;;;;;;;2.47;0.55;;;18.40;54.80;;;;;;5026173;28;20111;-91
2021/12/20 09:38:06;;;;;;;2.63;0.70;;;18.50;54.90;;;;;;4998976;28;20479;-76
2021/12/20 09:40:37;;;;;;;3.70;0.70;;;18.50;54.90;;;;;;5015257;28;20050;-76
2021/12/20 09:43:08;;;;;;;3.45;0.70;;;18.50;54.90;;;;;;5030257;28;20045;-83
2021/12/20 09:45:33;;;;;;;3.08;0.65;;;18.50;55.00;;;;;;5046882;28;20056;-82
2021/12/20 09:47:59;;;;;;;1.98;0.40;;;18.60;55.00;;;;;;5024971;28;20536;-83
2021/12/20 09:50:25;;;;;;;2.22;0.80;;;18.60;55.00;;;;;;5040827;28;20040;-82
2021/12/20 09:52:50;;;;;;;1.67;0.40;;;18.60;55.00;;;;;;5069280;28;20040;-83
2021/12/20 09:55:22;;;;;;;5.70;0.70;;;18.70;54.90;;;;;;5042336;28;20087;-82
2021/12/20 09:57:50;;;;;;;4.00;0.75;;;18.70;54.90;;;;;;5057121;28;20052;-81
2021/12/20 10:00:21;;;;;;;3.25;0.75;;;18.70;54.40;;;;;;5068791;28;20373;-85
2021/12/20 10:02:47;;;;;;;3.90;0.80;;;18.70;54.20;;;;;;5051782;28;20052;-86
2021/12/20 10:05:13;;;;;;;3.10;0.70;;;18.70;54.20;;;;;;5052981;28;20514;-82
2021/12/20 10:07:39;;;;;;;5.53;0.68;;;18.80;55.10;;;;;;5051673;28;20044;-83
2021/12/20 10:10:06;;;;;;;3.17;0.60;;;19.30;54.70;;;;;;5050568;28;20048;-83
2021/12/20 10:12:32;;;;;;;5.88;0.88;;;18.80;54.50;;;;;;5038213;28;20048;-82
2021/12/20 10:15:05;;;;;;;3.30;0.50;;;18.90;54.60;;;;;;5032405;28;20396;-85
2021/12/20 10:17:51;;;;;;;3.85;0.60;;;18.90;54.70;;;;;;5031131;28;20041;-83
2021/12/20 10:20:23;;;;;;;4.32;0.88;;;19.00;54.60;;;;;;5051803;28;20057;-84
2021/12/20 10:22:49;;;;;;;10.60;1.80;;;19.00;54.60;;;;;;5051018;28;20076;-81
2021/12/20 10:25:29;;;;;;;35.35;11.35;;;19.00;54.60;;;;;;5051471;28;20036;-87
2021/12/20 10:28:03;;;;;;;35.38;9.70;;;19.10;54.60;;;;;;5051754;28;20041;-83
2021/12/20 10:30:30;;;;;;;251.00;72.55;;;19.10;54.60;;;;;;5067986;28;20044;-83
2021/12/20 10:32:56;;;;;;;286.83;83.57;;;20.10;55.10;;;;;;5051522;28;20059;-83
2021/12/20 10:35:25;;;;;;;418.90;127.53;;;19.20;54.60;;;;;;5051985;28;20075;-87
2021/12/20 10:37:55;;;;;;;457.27;137.45;;;19.60;54.90;;;;;;5050748;28;20056;-85
2021/12/20 10:40:21;;;;;;;667.97;244.98;;;19.30;54.70;;;;;;5031544;28;20052;-82
2021/12/20 10:42:46;;;;;;;649.22;241.60;;;19.30;54.80;;;;;;5032486;28;20052;-81
2021/12/20 10:45:20;;;;;;;607.17;222.20;;;19.70;55.00;;;;;;5020473;28;20140;-87
2021/12/20 10:47:48;;;;;;;599.03;213.38;;;19.40;54.90;;;;;;5051017;28;20048;-85
2021/12/20 10:50:19;;;;;;;522.67;168.40;;;19.40;54.70;;;;;;5052558;28;20045;-88
2021/12/20 10:52:45;;;;;;;510.98;160.60;;;19.40;54.30;;;;;;5052960;28;20515;-87
2021/12/20 10:55:11;;;;;;;470.92;147.73;;;19.40;54.10;;;;;;5051301;28;20044;-87
2021/12/20 10:57:37;;;;;;;449.65;137.23;;;19.50;54.00;;;;;;5051775;28;20052;-87
2021/12/20 11:00:22;;;;;;;367.25;114.30;;;19.40;53.80;;;;;;5051174;28;20112;-87
2021/12/20 11:03:45;;;;;;;334.35;104.25;;;19.40;53.60;;;;;;5065794;28;20500;-87
2021/12/20 11:11:19;;;;;;;261.77;83.30;;;19.60;53.10;;;;;;5063642;28;20052;-86
2021/12/20 11:13:46;;;;;;;269.52;85.80;;;19.40;52.80;;;;;;5031687;28;20071;-87
2021/12/20 11:16:49;;;;;;;249.40;80.40;;;19.50;52.90;;;;;;5031102;28;20045;-88
2021/12/20 11:19:22;;;;;;;266.42;82.88;;;20.30;53.10;;;;;;5030999;28;20045;-88
2021/12/20 11:21:59;;;;;;;256.48;80.82;;;19.50;52.60;;;;;;5041111;28;20033;-88
2021/12/20 11:25:28;;;;;;;268.75;80.93;;;20.40;53.10;;;;;;5064861;28;20041;-85
2021/12/20 11:27:54;;;;;;;227.57;71.15;;;19.50;52.60;;;;;;4958350;28;20066;-84
2021/12/20 11:30:28;;;;;;;242.23;75.75;;;21.10;53.80;;;;;;5013643;28;20127;-85
2021/12/20 11:33:09;;;;;;;223.57;71.53;;;18.70;52.60;;;;;;5050315;28;20083;-85
2021/12/20 11:35:41;;;;;;;228.88;69.55;;;19.40;52.90;;;;;;5045067;28;20049;-85
2021/12/20 11:38:19;;;;;;;232.23;71.53;;;17.40;52.00;;;;;;5017900;28;20133;-85
2021/12/20 11:41:00;;;;;;;190.43;62.38;;;20.90;54.40;;;;;;5030399;28;20120;-85
2021/12/20 11:43:26;;;;;;;204.52;65.47;;;19.60;53.10;;;;;;5008361;28;20446;-85
2021/12/20 11:45:52;;;;;;;202.68;65.95;;;19.10;52.60;;;;;;5036353;28;20041;-85
2021/12/20 11:48:17;;;;;;;188.48;60.20;;;19.60;52.70;;;;;;5049733;28;20044;-85
2021/12/20 11:50:43;;;;;;;192.63;62.80;;;19.60;52.70;;;;;;5034405;28;20051;-85
2021/12/20 11:53:14;;;;;;;172.48;55.65;;;19.60;52.60;;;;;;5049737;28;20053;-85
2021/12/20 11:55:45;;;;;;;180.95;56.28;;;19.60;52.60;;;;;;5047176;28;20089;-85
2021/12/20 11:58:28;;;;;;;177.35;60.15;;;19.70;52.60;;;;;;5063507;28;20471;-86
2021/12/20 12:01:05;;;;;;;171.68;55.22;;;19.70;52.60;;;;;;4316448;28;20003952;-87
2021/12/20 12:03:32;;;;;;;151.57;53.00;;;19.70;52.60;;;;;;5027627;28;20049;-87
2021/12/20 12:06:04;;;;;;;141.60;51.10;;;19.70;52.60;;;;;;5011270;28;20505;-87
2021/12/20 12:08:32;;;;;;;153.73;51.75;;;19.70;52.60;;;;;;5010793;28;20126;-87
2021/12/20 12:11:07;;;;;;;149.13;51.47;;;19.80;52.60;;;;;;5011353;28;20057;-86
2021/12/20 12:14:00;;;;;;;137.98;47.47;;;19.80;52.60;;;;;;5011396;28;20060;-87
2021/12/20 12:16:59;;;;;;;131.10;45.08;;;19.80;52.60;;;;;;5011110;28;20049;-87
2021/12/20 12:19:48;;;;;;;145.30;49.10;;;19.80;52.60;;;;;;5011384;28;20057;-87
2021/12/20 12:22:26;;;;;;;138.80;46.63;;;19.90;52.60;;;;;;5012105;28;20389;-87
2021/12/20 12:24:52;;;;;;;141.80;48.17;;;19.90;52.60;;;;;;5014890;28;20452;-88
2021/12/20 12:27:22;;;;;;;128.65;43.78;;;21.30;53.30;;;;;;5013684;28;20053;-87
2021/12/20 12:30:11;;;;;;;133.73;44.03;;;19.90;52.60;;;;;;5013874;28;20520;-82
2021/12/20 12:32:37;;;;;;;91.53;29.85;;;19.90;52.50;;;;;;4997764;28;20046;-85
2021/12/20 12:35:03;;;;;;;82.63;29.15;;;19.90;52.10;;;;;;4991539;28;20049;-85
2021/12/20 12:37:33;;;;;;;79.60;28.38;;;19.90;52.10;;;;;;5009686;28;20107;-85
2021/12/20 12:40:27;;;;;;;98.85;31.30;;;19.90;52.00;;;;;;4824516;28;5086068;-85
2021/12/20 12:42:57;;;;;;;86.20;29.88;;;19.90;52.10;;;;;;5006864;28;20084;-84
2021/12/20 12:45:54;;;;;;;87.32;29.23;;;19.90;52.10;;;;;;5031402;28;20096;-84
2021/12/20 12:48:35;;;;;;;90.78;28.40;;;19.90;52.20;;;;;;5034046;28;20060;-83
2021/12/20 12:51:19;;;;;;;92.57;27.80;;;19.90;52.40;;;;;;5041279;28;20080;-83
2021/12/20 12:53:54;;;;;;;75.97;25.10;;;19.90;52.50;;;;;;5029692;28;20041;-83
2021/12/20 12:56:23;;;;;;;75.68;24.92;;;19.90;52.50;;;;;;5040090;28;20404;-85
2021/12/20 12:59:23;;;;;;;60.28;22.95;;;19.90;52.60;;;;;;5049814;28;20048;-82